createdAt,value
2022-11-24T00:01:10.660Z,99154.05
2022-11-24T00:03:38.654Z,99161.35
2022-11-24T00:06:09.099Z,99161.89
2022-11-24T00:08:38.221Z,99165.70
2022-11-24T00:11:07.753Z,99164.83
2022-11-24T00:13:36.204Z,99165.70
2022-11-24T00:16:07.858Z,99160.31
2022-11-24T00:18:35.493Z,99162.58
2022-11-24T00:21:03.704Z,99161.89
2022-11-24T00:23:31.443Z,99159.79
2022-11-24T00:26:06.132Z,99166.22
2022-11-24T00:28:35.083Z,99171.59
2022-11-24T00:31:04.118Z,99168.29
2022-11-24T00:33:32.144Z,99175.57
2022-11-24T00:36:00.636Z,99177.65
2022-11-24T00:38:28.423Z,99177.30
2022-11-24T00:40:56.068Z,99181.98
2022-11-24T00:43:23.616Z,99177.64
2022-11-24T00:45:51.296Z,99185.61
2022-11-24T00:48:18.996Z,99188.56
2022-11-24T00:51:02.281Z,99193.41
2022-11-24T00:53:30.586Z,99197.21
2022-11-24T00:55:58.571Z,99200.52
2022-11-24T00:58:26.278Z,99199.63
2022-11-24T01:00:54.000Z,99201.19
2022-11-24T01:03:21.938Z,99205.02
2022-11-24T01:05:49.529Z,99202.42
2022-11-24T01:08:17.081Z,99203.66
2022-11-24T01:10:44.690Z,99202.63
2022-11-24T01:13:12.264Z,99205.95
2022-11-24T01:15:40.171Z,99206.13
2022-11-24T01:18:07.855Z,99207.15
2022-11-24T01:20:36.728Z,99206.45
2022-11-24T01:23:04.393Z,99210.63
2022-11-24T01:25:31.949Z,99208.02
2022-11-24T01:27:59.525Z,99210.80
2022-11-24T01:30:27.101Z,99210.45
2022-11-24T01:32:54.771Z,99208.37
2022-11-24T01:35:22.349Z,99211.48
2022-11-24T01:37:49.955Z,99216.17
2022-11-24T01:40:17.560Z,99214.27
2022-11-24T01:42:50.597Z,99219.45
2022-11-24T01:45:35.660Z,99218.23
2022-11-24T01:48:07.114Z,99216.48
2022-11-24T01:50:36.116Z,99220.95
2022-11-24T01:53:04.971Z,99218.23
2022-11-24T01:55:37.038Z,99226.20
2022-11-24T01:58:13.358Z,99224.11
2022-11-24T02:00:44.218Z,99222.91
2022-11-24T02:03:15.685Z,99225.67
2022-11-24T02:05:50.236Z,99226.72
2022-11-24T02:08:28.608Z,99226.90
2022-11-24T02:10:56.903Z,99223.61
2022-11-24T02:13:24.984Z,99220.51
2022-11-24T02:15:53.137Z,99221.21
2022-11-24T02:18:21.139Z,99222.08
2022-11-24T02:20:48.826Z,99220.36
2022-11-24T02:23:28.212Z,99218.96
2022-11-24T02:26:28.094Z,99224.36
2022-11-24T02:28:56.673Z,99221.61
2022-11-24T02:31:24.296Z,99221.27
2022-11-24T02:33:52.096Z,99220.91
2022-11-24T02:36:19.665Z,99221.27
2022-11-24T02:38:47.321Z,99218.83
2022-11-24T02:41:19.120Z,99220.71
2022-11-24T02:43:51.391Z,99220.36
2022-11-24T02:46:19.058Z,99221.73
2022-11-24T02:48:46.703Z,99222.42
2022-11-24T02:51:14.325Z,99221.73
2022-11-24T02:53:41.902Z,99220.14
2022-11-24T02:56:09.606Z,99219.95
2022-11-24T02:58:37.183Z,99219.78
2022-11-24T03:01:05.052Z,99223.42
2022-11-24T03:03:32.760Z,99222.71
2022-11-24T03:06:00.394Z,99225.33
2022-11-24T03:08:28.071Z,99221.13
2022-11-24T03:10:55.719Z,99221.30
2022-11-24T03:13:23.289Z,99222.50
2022-11-24T03:15:50.956Z,99227.36
2022-11-24T03:18:18.585Z,99232.04
2022-11-24T03:20:46.237Z,99233.95
2022-11-24T03:23:13.860Z,99241.76
2022-11-24T03:25:41.432Z,99244.36
2022-11-24T03:28:09.341Z,99245.41
2022-11-24T03:30:36.920Z,99246.45
2022-11-24T03:33:04.568Z,99249.72
2022-11-24T03:35:32.245Z,99248.14
2022-11-24T03:37:59.871Z,99252.28
2022-11-24T03:40:27.431Z,99251.39
2022-11-24T03:42:55.016Z,99252.93
2022-11-24T03:45:44.841Z,99253.27
2022-11-24T03:48:10.247Z,99254.48
2022-11-24T03:50:37.978Z,99255.84
2022-11-24T03:53:05.641Z,99258.95
2022-11-24T03:55:33.224Z,99257.20
2022-11-24T03:58:00.794Z,99254.92
2022-11-24T04:00:28.415Z,99261.19
2022-11-24T04:02:56.047Z,99259.44
2022-11-24T04:05:23.682Z,99262.90
2022-11-24T04:07:51.288Z,99261.49
2022-11-24T04:10:18.983Z,99267.20
2022-11-24T04:12:46.658Z,99268.23
2022-11-24T04:15:19.203Z,99270.63
2022-11-24T04:17:49.422Z,99273.55
2022-11-24T04:20:17.350Z,99278.70
2022-11-24T04:22:44.930Z,99282.66
2022-11-24T04:25:12.698Z,99281.42
2022-11-24T04:27:40.322Z,99287.10
2022-11-24T04:30:08.326Z,99290.89
2022-11-24T04:32:36.613Z,99293.10
2022-11-24T04:35:04.754Z,99294.30
2022-11-24T04:37:32.326Z,99296.02
2022-11-24T04:39:59.917Z,99302.42
2022-11-24T04:42:27.525Z,99304.98
2022-11-24T04:44:55.080Z,99306.52
2022-11-24T04:47:25.101Z,99312.91
2022-11-24T04:49:53.635Z,99311.69
2022-11-24T04:52:23.732Z,99317.53
2022-11-24T04:54:51.539Z,99314.73
2022-11-24T04:57:25.146Z,99320.41
2022-11-24T04:59:53.960Z,99326.77
2022-11-24T05:02:22.390Z,99336.28
2022-11-24T05:04:50.157Z,99336.10
2022-11-24T05:07:19.624Z,99336.61
2022-11-24T05:09:58.891Z,99337.27
2022-11-24T05:12:28.171Z,99344.17
2022-11-24T05:14:55.777Z,99346.94
2022-11-24T05:17:23.441Z,99354.58
2022-11-24T05:19:51.055Z,99353.52
2022-11-24T05:22:18.719Z,99358.73
2022-11-24T05:24:46.339Z,99359.94
2022-11-24T05:27:14.256Z,99366.33
2022-11-24T05:29:42.367Z,99364.95
2022-11-24T05:32:09.980Z,99369.11
2022-11-24T05:34:38.457Z,99367.89
2022-11-24T05:37:07.036Z,99369.13
2022-11-24T05:39:36.291Z,99373.96
2022-11-24T05:42:06.019Z,99374.65
2022-11-24T05:44:33.846Z,99379.35
2022-11-24T05:47:01.683Z,99380.39
2022-11-24T05:49:29.282Z,99384.04
2022-11-24T05:51:56.944Z,99387.72
2022-11-24T05:54:24.509Z,99387.40
2022-11-24T05:56:52.101Z,99394.01
2022-11-24T05:59:19.688Z,99397.65
2022-11-24T06:01:47.625Z,99400.95
2022-11-24T06:04:15.489Z,99400.60
2022-11-24T06:06:43.239Z,99401.83
2022-11-24T06:09:10.846Z,99406.38
2022-11-24T06:11:38.455Z,99404.48
2022-11-24T06:14:10.877Z,99407.41
2022-11-24T06:16:39.031Z,99410.37
2022-11-24T06:19:06.784Z,99409.14
2022-11-24T06:21:34.381Z,99409.16
2022-11-24T06:24:02.056Z,99410.75
2022-11-24T06:26:29.830Z,99408.67
2022-11-24T06:28:57.521Z,99413.02
2022-11-24T06:31:25.470Z,99415.83
2022-11-24T06:33:53.667Z,99423.11
2022-11-24T06:36:21.296Z,99424.68
2022-11-24T06:38:48.918Z,99430.92
2022-11-24T06:41:17.502Z,99440.42
2022-11-24T06:43:45.857Z,99443.53
2022-11-24T06:46:13.736Z,99447.38
2022-11-24T06:48:41.413Z,99451.38
2022-11-24T06:51:11.686Z,99446.38
2022-11-24T06:53:40.609Z,99447.23
2022-11-24T06:56:16.719Z,99450.02
2022-11-24T06:58:47.039Z,99456.99
2022-11-24T07:01:17.113Z,99458.08
2022-11-24T07:03:45.277Z,99455.86
2022-11-24T07:06:12.917Z,99460.24
2022-11-24T07:08:40.547Z,99470.16
2022-11-24T07:11:10.577Z,99468.97
2022-11-24T07:13:38.718Z,99471.77
2022-11-24T07:16:21.744Z,99475.42
2022-11-24T07:18:50.791Z,99475.67
2022-11-24T07:21:19.662Z,99481.09
2022-11-24T07:23:55.758Z,99484.61
2022-11-24T07:26:24.097Z,99488.98
2022-11-24T07:28:51.972Z,99489.52
2022-11-24T07:31:22.179Z,99492.13
2022-11-24T07:33:54.947Z,99498.05
2022-11-24T07:36:23.391Z,99500.50
2022-11-24T07:38:50.964Z,99506.63
2022-11-24T07:41:19.620Z,99508.94
2022-11-24T07:43:48.549Z,99508.48
2022-11-24T07:46:18.122Z,99509.22
2022-11-24T07:48:46.329Z,99514.83
2022-11-24T07:51:14.510Z,99516.42
2022-11-24T07:53:42.117Z,99515.61
2022-11-24T07:56:10.025Z,99525.01
2022-11-24T07:58:38.198Z,99526.24
2022-11-24T08:01:18.518Z,99525.91
2022-11-24T08:03:47.185Z,99525.94
2022-11-24T08:06:24.969Z,99527.67
2022-11-24T08:08:54.809Z,99528.38
2022-11-24T08:11:22.675Z,99528.92
2022-11-24T08:13:50.619Z,99531.36
2022-11-24T08:16:19.518Z,99529.84
2022-11-24T08:18:53.243Z,99531.58
2022-11-24T08:21:22.227Z,99531.09
2022-11-24T08:23:49.895Z,99534.21
2022-11-24T08:26:17.507Z,99537.89
2022-11-24T08:28:46.662Z,99536.70
2022-11-24T08:31:16.649Z,99540.73
2022-11-24T08:33:44.760Z,99544.20
2022-11-24T08:36:16.030Z,99546.48
2022-11-24T08:38:44.138Z,99550.69
2022-11-24T08:41:15.161Z,99550.17
2022-11-24T08:43:43.109Z,99551.05
2022-11-24T08:46:16.352Z,99552.98
2022-11-24T08:48:52.473Z,99560.11
2022-11-24T08:51:22.792Z,99558.89
2022-11-24T08:53:54.605Z,99565.48
2022-11-24T08:56:22.275Z,99563.92
2022-11-24T08:58:49.920Z,99563.77
2022-11-24T09:01:17.962Z,99564.48
2022-11-24T09:03:50.773Z,99564.45
2022-11-24T09:06:21.178Z,99567.96
2022-11-24T09:08:48.965Z,99566.42
2022-11-24T09:11:17.481Z,99566.43
2022-11-24T09:13:45.504Z,99565.21
2022-11-24T09:16:19.352Z,99566.77
2022-11-24T09:18:47.446Z,99570.96
2022-11-24T09:21:18.721Z,99570.81
2022-11-24T09:23:48.507Z,99569.41
2022-11-24T09:26:18.916Z,99571.70
2022-11-24T09:28:47.200Z,99571.59
2022-11-24T09:31:17.610Z,99572.34
2022-11-24T09:33:45.629Z,99569.27
2022-11-24T09:36:14.300Z,99568.42
2022-11-24T09:38:42.292Z,99573.81
2022-11-24T09:41:28.297Z,99572.61
2022-11-24T09:44:13.653Z,99574.86
2022-11-24T09:46:56.608Z,99576.30
2022-11-24T09:49:33.485Z,99577.73
2022-11-24T09:52:08.612Z,99577.60
2022-11-24T09:54:39.911Z,99577.51
2022-11-24T09:57:11.707Z,99577.24
2022-11-24T09:59:41.143Z,99578.17
2022-11-24T10:02:12.914Z,99582.20
2022-11-24T10:04:46.459Z,99584.51
2022-11-24T10:54:16.031Z,99593.87
2022-11-24T10:56:46.415Z,99597.02
2022-11-24T10:59:32.558Z,99602.07
2022-11-24T11:02:00.725Z,99604.88
2022-11-24T11:04:33.952Z,99611.50
2022-11-24T11:07:14.797Z,99613.96
2022-11-24T11:09:42.449Z,99617.67
2022-11-24T11:12:43.296Z,99622.59
2022-11-24T11:15:30.983Z,99619.67
2022-11-24T11:18:01.708Z,99621.13
2022-11-24T11:20:34.108Z,99621.86
2022-11-24T11:23:14.681Z,99613.21
2022-11-24T11:25:42.408Z,99623.54
2022-11-24T11:28:28.088Z,99626.66
2022-11-24T11:31:21.324Z,99631.19
2022-11-24T11:34:14.422Z,99638.48
2022-11-24T11:36:48.988Z,99639.55
2022-11-24T11:39:31.874Z,99639.92
2022-11-24T11:42:45.411Z,99639.40
2022-11-24T11:45:13.281Z,99639.76
2022-11-24T11:47:59.490Z,99645.67
2022-11-24T11:51:21.314Z,99639.23
2022-11-24T11:53:42.105Z,99641.14
2022-11-24T11:56:30.223Z,99636.79
2022-11-24T11:59:23.411Z,99640.80
2022-11-24T12:02:53.426Z,99643.58
2022-11-24T12:05:46.103Z,99644.10
2022-11-24T12:09:19.080Z,99646.37
2022-11-24T12:12:19.684Z,99645.67
2022-11-24T12:15:20.391Z,99647.77
2022-11-24T12:17:52.919Z,99650.02
2022-11-24T12:20:29.376Z,99648.29
2022-11-24T12:23:07.804Z,99642.54
2022-11-24T12:25:45.440Z,99650.21
2022-11-24T12:28:51.422Z,99646.55
2022-11-24T12:31:52.537Z,99647.06
2022-11-24T12:34:35.164Z,99650.88
2022-11-24T12:37:26.377Z,99648.08
2022-11-24T12:40:03.963Z,99650.33
2022-11-24T12:42:59.485Z,99649.09
2022-11-24T12:45:40.502Z,99649.27
2022-11-24T12:48:14.104Z,99649.98
2022-11-24T12:50:45.819Z,99660.13
2022-11-24T12:53:24.717Z,99661.00
2022-11-24T12:55:54.359Z,99663.63
2022-11-24T12:58:37.077Z,99657.70
2022-11-24T13:01:25.209Z,99663.98
2022-11-24T13:04:11.026Z,99664.68
2022-11-24T13:06:52.279Z,99666.23
2022-11-24T13:09:20.417Z,99669.69
2022-11-24T13:11:53.165Z,99667.22
2022-11-24T13:14:28.729Z,99670.35
2022-11-24T13:19:49.655Z,99670.83
2022-11-24T13:22:22.799Z,99670.46
2022-11-24T13:25:23.591Z,99668.36
2022-11-24T13:28:05.585Z,99671.17
2022-11-24T13:30:33.050Z,99672.40
2022-11-24T13:33:16.225Z,99676.04
2022-11-24T13:36:03.166Z,99680.38
2022-11-24T13:38:44.002Z,99686.83
2022-11-24T13:41:31.616Z,99688.39
2022-11-24T13:44:14.643Z,99692.23
2022-11-24T13:47:07.770Z,99694.48
2022-11-24T13:49:43.578Z,99695.52
2022-11-24T13:52:36.103Z,99698.48
2022-11-24T13:55:12.774Z,99702.83
2022-11-24T13:57:49.238Z,99705.79
2022-11-24T14:00:33.240Z,99701.42
2022-11-24T14:03:05.335Z,99706.13
2022-11-24T14:05:46.004Z,99707.16
2022-11-24T14:08:32.691Z,99710.13
2022-11-24T14:11:02.579Z,99713.61
2022-11-24T14:13:32.680Z,99716.42
2022-11-24T14:16:14.708Z,99714.34
2022-11-24T14:18:44.950Z,99724.60
2022-11-24T14:21:25.296Z,99727.37
2022-11-24T14:23:59.956Z,99731.02
2022-11-24T14:26:36.379Z,99733.96
2022-11-24T14:29:14.344Z,99731.20
2022-11-24T14:31:51.621Z,99735.20
2022-11-24T14:34:20.739Z,99736.75
2022-11-24T14:36:49.495Z,99739.34
2022-11-24T14:39:20.149Z,99741.59
2022-11-24T14:42:16.344Z,99747.15
2022-11-24T14:44:59.650Z,99748.52
2022-11-24T14:47:33.081Z,99756.33
2022-11-24T14:50:26.854Z,99757.00
2022-11-24T14:52:56.656Z,99756.80
2022-11-24T14:55:24.357Z,99758.17
2022-11-24T14:57:52.199Z,99765.12
2022-11-24T15:00:25.689Z,99767.54
2022-11-24T15:02:56.097Z,99770.30
2022-11-24T15:05:25.507Z,99775.85
2022-11-24T15:08:03.011Z,99778.09
2022-11-24T15:10:37.401Z,99782.92
2022-11-24T15:13:15.127Z,99785.66
2022-11-24T15:15:55.318Z,99785.13
2022-11-24T15:18:48.354Z,99787.52
2022-11-24T15:21:37.100Z,99792.20
2022-11-24T15:24:19.820Z,99792.71
2022-11-24T15:26:47.917Z,99801.05
2022-11-24T15:29:15.683Z,99801.90
2022-11-24T15:31:46.463Z,99804.15
2022-11-24T15:34:18.542Z,99800.80
2022-11-24T15:36:46.129Z,99803.73
2022-11-24T15:39:14.241Z,99808.38
2022-11-24T15:41:41.949Z,99810.25
2022-11-24T15:44:10.165Z,99811.11
2022-11-24T15:46:38.203Z,99814.39
2022-11-24T15:49:06.685Z,99813.34
2022-11-24T15:51:35.843Z,99817.48
2022-11-24T15:54:03.668Z,99810.33
2022-11-24T15:56:34.077Z,99816.55
2022-11-24T15:59:04.106Z,99818.27
2022-11-24T16:01:33.457Z,99818.60
2022-11-24T16:04:02.141Z,99820.66
2022-11-24T16:06:29.819Z,99822.89
2022-11-24T16:08:57.619Z,99822.68
2022-11-24T16:11:25.483Z,99828.04
2022-11-24T16:13:54.382Z,99834.64
2022-11-24T16:16:23.944Z,99834.61
2022-11-24T16:18:51.700Z,99837.72
2022-11-24T16:21:19.325Z,99836.29
2022-11-24T16:23:48.307Z,99837.29
2022-11-24T16:26:15.984Z,99839.36
2022-11-24T16:28:46.199Z,99840.55
2022-11-24T16:31:14.167Z,99837.73
2022-11-24T16:33:41.809Z,99843.80
2022-11-24T16:36:10.001Z,99840.46
2022-11-24T16:38:37.642Z,99841.50
2022-11-24T16:41:05.285Z,99846.00
2022-11-24T16:43:32.863Z,99846.32
2022-11-24T16:46:20.761Z,99854.27
2022-11-24T16:48:51.022Z,99863.46
2022-11-24T16:51:22.116Z,99861.86
2022-11-24T16:53:57.827Z,99865.16
2022-11-24T16:56:26.627Z,99866.52
2022-11-24T16:58:54.503Z,99864.92
2022-11-24T17:01:22.806Z,99866.45
2022-11-24T17:03:50.430Z,99868.33
2022-11-24T17:06:18.175Z,99868.84
2022-11-24T17:08:47.000Z,99877.33
2022-11-24T17:11:17.611Z,99876.08
2022-11-24T17:13:46.710Z,99876.23
2022-11-24T17:16:17.626Z,99877.27
2022-11-24T17:18:47.545Z,99878.27
2022-11-24T17:21:17.691Z,99882.05
2022-11-24T17:23:46.247Z,99879.92
2022-11-24T17:26:15.931Z,99882.87
2022-11-24T17:28:44.077Z,99886.14
2022-11-24T17:31:25.953Z,99883.34
2022-11-24T17:33:55.869Z,99881.73
2022-11-24T17:36:23.857Z,99881.35
2022-11-24T17:38:52.068Z,99880.98
2022-11-24T17:41:20.622Z,99886.33
2022-11-24T17:43:52.891Z,99889.08
2022-11-24T17:46:20.585Z,99893.19
2022-11-24T17:48:48.419Z,99894.71
2022-11-24T17:51:19.141Z,99896.05
2022-11-24T17:53:49.086Z,99908.70
2022-11-24T17:56:19.860Z,99905.56
2022-11-24T17:58:47.534Z,99910.06
2022-11-24T18:01:15.489Z,99915.06
2022-11-24T18:03:43.332Z,99921.42
2022-11-24T18:06:13.348Z,99924.88
2022-11-24T18:08:43.796Z,99935.43
2022-11-24T18:11:14.695Z,99938.20
2022-11-24T18:14:01.183Z,99938.88
2022-11-24T18:16:31.788Z,99941.13
2022-11-24T18:19:09.921Z,99945.96
2022-11-24T18:21:40.288Z,99948.55
2022-11-24T18:24:10.448Z,99954.94
2022-11-24T18:26:39.652Z,99957.86
2022-11-24T18:29:08.046Z,99956.96
2022-11-24T18:31:36.341Z,99956.59
2022-11-24T18:34:05.822Z,99959.65
2022-11-24T18:36:34.209Z,99956.33
2022-11-24T18:39:03.472Z,99961.85
2022-11-24T18:41:31.860Z,99961.30
2022-11-24T18:44:00.734Z,99960.05
2022-11-24T18:46:28.571Z,99961.23
2022-11-24T18:48:56.208Z,99966.42
2022-11-24T18:51:23.768Z,99970.20
2022-11-24T18:53:52.771Z,99979.71
2022-11-24T18:56:20.733Z,99977.94
2022-11-24T18:58:51.985Z,99981.20
2022-11-24T19:01:23.201Z,99984.27
2022-11-24T19:03:54.485Z,99987.38
2022-11-24T19:06:25.273Z,99985.13
2022-11-24T19:08:53.961Z,99990.52
2022-11-24T19:11:27.796Z,99989.59
2022-11-24T19:13:56.569Z,99988.71
2022-11-24T19:16:24.591Z,99989.23
2022-11-24T19:18:54.931Z,99993.31
2022-11-24T19:21:23.130Z,99996.59
2022-11-24T19:23:50.687Z,99996.59
2022-11-24T19:26:18.379Z,100008.67
2022-11-24T19:28:46.301Z,100011.56
2022-11-24T19:31:16.189Z,100015.33
2022-11-24T19:33:44.488Z,100024.48
2022-11-24T19:36:20.465Z,100024.41
2022-11-24T19:38:56.145Z,100028.21
2022-11-24T19:41:26.899Z,100032.16
2022-11-24T19:43:55.363Z,100035.93
2022-11-24T19:46:24.176Z,100042.48
2022-11-24T19:48:52.054Z,100038.94
2022-11-24T19:51:22.594Z,100043.38
2022-11-24T19:53:50.223Z,100044.40
2022-11-24T19:56:23.296Z,100048.15
2022-11-24T19:58:51.915Z,100054.86
2022-11-24T20:01:22.186Z,100058.82
2022-11-24T20:03:58.203Z,100063.27
2022-11-24T20:06:28.114Z,100071.21
2022-11-24T20:08:57.934Z,100071.52
2022-11-24T20:11:28.681Z,100068.34
2022-11-24T20:13:57.396Z,100074.36
2022-11-24T20:16:29.316Z,100076.57
2022-11-24T20:19:03.000Z,100080.66
2022-11-24T20:21:30.595Z,100085.46
2022-11-24T20:24:19.888Z,100091.34
2022-11-24T20:26:52.662Z,100094.39
2022-11-24T20:29:20.506Z,100099.38
2022-11-24T20:31:50.758Z,100095.34
2022-11-24T20:34:19.563Z,100098.93
2022-11-24T20:36:47.777Z,100107.05
2022-11-24T20:39:18.946Z,100106.66
2022-11-24T20:41:46.937Z,100109.77
2022-11-24T20:44:16.826Z,100114.23
2022-11-24T20:46:45.953Z,100113.86
2022-11-24T20:49:16.445Z,100118.86
2022-11-24T20:51:44.789Z,100127.20
2022-11-24T20:54:13.328Z,100126.68
2022-11-24T20:56:44.280Z,100127.89
2022-11-24T20:59:21.193Z,100128.59
2022-11-24T21:01:50.783Z,100131.73
2022-11-24T21:04:24.304Z,100134.54
2022-11-24T21:06:52.129Z,100129.87
2022-11-24T21:09:20.154Z,100130.80
2022-11-24T21:11:48.564Z,100131.35
2022-11-24T21:14:18.140Z,100131.42
2022-11-24T21:16:45.807Z,100137.38
2022-11-24T21:19:14.988Z,100144.22
2022-11-24T21:21:43.173Z,100148.92
2022-11-24T21:24:16.151Z,100148.95
2022-11-24T21:26:45.410Z,100148.03
2022-11-24T21:29:14.900Z,100147.86
2022-11-24T21:31:42.956Z,100147.83
2022-11-24T21:34:14.860Z,100149.16
2022-11-24T21:36:42.882Z,100150.66
2022-11-24T21:39:12.447Z,100152.47
2022-11-24T21:41:40.966Z,100151.02
2022-11-24T21:44:10.238Z,100147.50
2022-11-24T21:46:43.567Z,100149.16
2022-11-24T21:49:13.445Z,100154.83
2022-11-24T21:51:41.133Z,100154.89
2022-11-24T21:54:09.101Z,100157.98
2022-11-24T21:56:36.717Z,100156.91
2022-11-24T21:59:04.307Z,100153.20
2022-11-24T22:01:32.005Z,100158.54
2022-11-24T22:03:59.629Z,100159.20
2022-11-24T22:06:27.291Z,100154.99
2022-11-24T22:08:54.928Z,100151.33
2022-11-24T22:11:24.471Z,100156.13
2022-11-24T22:13:52.640Z,100153.68
2022-11-24T22:16:22.905Z,100153.86
2022-11-24T22:18:51.304Z,100161.96
2022-11-24T22:21:21.392Z,100162.27
2022-11-24T22:23:51.471Z,100171.60
2022-11-24T22:26:21.328Z,100176.42
2022-11-24T22:28:49.581Z,100176.75
2022-11-24T22:31:31.236Z,100182.80
2022-11-24T22:33:59.446Z,100182.42
2022-11-24T22:36:34.621Z,100190.39
2022-11-24T22:39:11.409Z,100191.41
2022-11-24T22:41:43.549Z,100194.31
2022-11-24T22:44:11.273Z,100196.17
2022-11-24T22:46:38.886Z,100198.41
2022-11-24T22:49:06.474Z,100200.29
2022-11-24T22:51:37.749Z,100199.72
2022-11-24T22:54:05.849Z,100200.69
2022-11-24T22:56:33.902Z,100201.65
2022-11-24T22:59:02.202Z,100204.48
2022-11-24T23:01:31.216Z,100197.44
2022-11-24T23:03:59.488Z,100210.13
2022-11-24T23:06:29.141Z,100207.30
2022-11-24T23:08:58.345Z,100211.05
2022-11-24T23:11:37.183Z,100211.70
2022-11-24T23:14:08.171Z,100215.77
2022-11-24T23:16:35.896Z,100221.10
2022-11-24T23:19:04.147Z,100222.80
2022-11-24T23:21:34.354Z,100225.89
2022-11-24T23:24:04.321Z,100225.44
2022-11-24T23:26:37.489Z,100227.77
2022-11-24T23:29:06.172Z,100228.13
2022-11-24T23:31:34.422Z,100232.82
2022-11-24T23:34:03.761Z,100231.17
2022-11-24T23:36:32.738Z,100236.29
2022-11-24T23:39:06.102Z,100241.11
2022-11-24T23:41:33.965Z,100242.60
2022-11-24T23:44:01.617Z,100244.23
2022-11-24T23:46:29.594Z,100244.57
2022-11-24T23:48:57.296Z,100246.25
2022-11-24T23:51:29.944Z,100242.80
2022-11-24T23:53:58.213Z,100243.23
2022-11-24T23:56:28.325Z,100240.55
2022-11-24T23:58:55.903Z,100240.39
